Time;durP1;ratioP1;P1;durP2;ratioP2;P2;SDS_P1;SDS_P2;PMS_P1;PMS_P2;Temp;Humidity;BMP_temperature;BMP_pressure;BME280_temperature;BME280_humidity;BME280_pressure;Samples;Min_cycle;Max_cycle;Signal;HPM_P1;HPM_P2
2023/09/14 00:02:13;;;;;;;12.80;2.83;;;;;;;13.16;100.00;37948.03;6273501;22;20018;-76
2023/09/14 00:04:38;;;;;;;7.97;3.00;;;;;;;13.14;100.00;36214.38;6274979;22;20011;-77
2023/09/14 00:07:03;;;;;;;10.90;3.00;;;;;;;13.12;100.00;34481.59;6273787;22;20023;-76
2023/09/14 00:09:29;;;;;;;10.33;3.17;;;;;;;13.06;100.00;35863.38;6246708;22;20055;-77
2023/09/14 00:11:54;;;;;;;11.33;3.87;;;;;;;12.99;100.00;38283.44;6274565;22;20430;-76
2023/09/14 00:14:20;;;;;;;9.07;3.80;;;;;;;12.96;100.00;37935.34;6274459;22;20023;-77
2023/09/14 00:16:46;;;;;;;9.30;3.53;;;;;;;12.95;100.00;35856.28;6273865;22;20011;-76
2023/09/14 00:19:12;;;;;;;13.52;3.70;;;;;;;12.95;100.00;33779.28;6273848;22;20119;-76
2023/09/14 00:21:39;;;;;;;9.20;3.03;;;;;;;12.96;100.00;32396.09;6274641;22;19999;-76
2023/09/14 00:24:05;;;;;;;10.15;3.70;;;;;;;12.95;100.00;32049.59;6274685;22;20013;-76
2023/09/14 00:26:30;;;;;;;11.55;3.03;;;;;;;12.89;100.00;31700.41;6247246;22;20000;-77
2023/09/14 00:28:56;;;;;;;10.57;4.43;;;;;;;12.85;100.00;32043.78;6273707;22;20307;-76
2023/09/14 00:31:21;;;;;;;8.13;3.27;;;;;;;12.80;100.00;33770.84;6274250;22;20315;-76
2023/09/14 00:33:46;;;;;;;9.73;3.27;;;;;;;12.82;100.00;32042.13;6245888;22;20033;-76
2023/09/14 00:36:12;;;;;;;9.27;3.00;;;;;;;12.78;100.00;33077.81;6272128;22;20729;-76
2023/09/14 00:38:37;;;;;;;7.10;3.13;;;;;;;12.77;100.00;32039.34;6274650;22;20330;-77
2023/09/14 00:41:02;;;;;;;17.07;4.13;;;;;;;12.78;100.00;31002.56;6273719;22;20333;-75
2023/09/14 00:43:28;;;;;;;8.17;3.43;;;;;;;12.79;100.00;30657.38;6274079;22;20049;-77
2023/09/14 00:45:53;;;;;;;10.70;3.23;;;;;;;12.81;100.00;29967.06;6274054;22;19999;-76
2023/09/14 00:48:19;;;;;;;11.50;3.37;;;;;;;12.82;100.00;28239.66;6274754;22;20000;-77
2023/09/14 00:50:45;;;;;;;7.10;3.50;;;;;;;12.86;100.00;26168.97;6274054;22;19999;-76
2023/09/14 00:53:15;;;;;;;9.63;3.40;;;;;;;12.79;100.00;27201.84;6245899;22;20593;-76
2023/09/14 00:55:43;;;;;;;7.45;3.22;;;;;;;12.79;100.00;27202.09;6273544;22;20437;-77
2023/09/14 00:58:14;;;;;;;12.23;3.35;;;;;;;12.81;100.00;27548.22;6272830;22;20330;-78
2023/09/14 01:00:40;;;;;;;10.25;3.55;;;;;;;12.79;100.00;27547.25;6246751;22;20007;-74
2023/09/14 01:03:05;;;;;;;13.37;4.50;;;;;;;12.63;100.00;29957.72;6273944;22;20448;-74
2023/09/14 01:05:33;;;;;;;11.50;2.87;;;;;;;12.62;100.00;28575.50;6274515;22;20008;-73
2023/09/14 01:07:59;;;;;;;7.13;3.22;;;;;;;12.62;100.00;29611.69;6272795;22;20437;-74
2023/09/14 01:10:24;;;;;;;12.05;3.40;;;;;;;12.59;100.00;31683.69;6274313;22;20003;-74
2023/09/14 01:12:50;;;;;;;10.67;3.77;;;;;;;12.58;100.00;30646.25;6246802;22;20046;-74
2023/09/14 01:15:39;;;;;;;7.00;3.33;;;;;;;12.57;100.00;29609.09;6246132;22;20307;-74
2023/09/14 01:18:17;;;;;;;8.48;3.40;;;;;;;12.55;100.00;29262.88;6246581;22;19999;-74
2023/09/14 01:21:07;;;;;;;8.00;3.30;;;;;;;12.59;100.00;27883.00;6274043;22;20010;-73
2023/09/14 01:23:47;;;;;;;8.18;3.53;;;;;;;12.53;100.00;28225.41;6246774;22;20011;-74
2023/09/14 01:26:14;;;;;;;10.82;3.85;;;;;;;12.56;100.00;26845.69;6273238;22;20030;-73
2023/09/14 01:28:40;;;;;;;13.77;4.13;;;;;;;12.55;100.00;28571.78;6273663;22;20438;-74
2023/09/14 01:31:05;;;;;;;12.00;3.97;;;;;;;12.49;100.00;28569.03;6273137;22;20434;-74
2023/09/14 01:33:31;;;;;;;10.23;4.00;;;;;;;12.52;100.00;25808.53;6274070;22;20074;-73
2023/09/14 01:36:13;;;;;;;11.77;4.07;;;;;;;12.53;100.00;24083.47;6273952;22;19999;-74
2023/09/14 01:38:41;;;;;;;8.73;3.63;;;;;;;12.49;100.00;24081.78;6246259;22;20082;-74
2023/09/14 01:41:07;;;;;;;10.45;3.65;;;;;;;12.43;100.00;25114.16;6273259;22;20083;-74
2023/09/14 01:43:34;;;;;;;12.13;4.20;;;;;;;12.44;100.00;25459.63;6274160;22;20007;-74
2023/09/14 01:46:02;;;;;;;9.30;3.55;;;;;;;12.44;100.00;24769.81;6246643;22;20015;-74
2023/09/14 01:48:27;;;;;;;7.80;3.53;;;;;;;12.42;100.00;24078.81;6273740;22;19999;-74
2023/09/14 01:50:52;;;;;;;10.97;3.97;;;;;;;12.34;100.00;23730.59;6245381;22;20011;-75
2023/09/14 01:53:18;;;;;;;10.93;3.40;;;;;;;12.26;100.00;26831.88;6247484;22;20027;-74
2023/09/14 01:55:43;;;;;;;9.27;4.13;;;;;;;12.31;100.00;25799.06;6248925;22;20010;-74
2023/09/14 01:58:10;;;;;;;11.70;3.90;;;;;;;12.37;100.00;24421.81;6275780;22;19999;-74
2023/09/14 02:00:35;;;;;;;8.93;4.10;;;;;;;12.30;100.00;25108.66;6275632;22;20003;-73
2023/09/14 02:03:01;;;;;;;9.60;3.60;;;;;;;12.29;100.00;25108.22;6275346;22;20061;-73
2023/09/14 02:05:26;;;;;;;9.80;4.43;;;;;;;12.29;100.00;24073.53;6248082;22;20003;-73
2023/09/14 02:07:51;;;;;;;8.53;4.13;;;;;;;12.29;100.00;23383.69;6248876;22;20007;-73
2023/09/14 02:10:19;;;;;;;13.43;3.87;;;;;;;12.25;100.00;23037.50;6275425;22;20137;-73
2023/09/14 02:12:45;;;;;;;7.82;3.70;;;;;;;12.28;100.00;23038.53;6248268;22;20073;-73
2023/09/14 02:15:10;;;;;;;11.20;3.70;;;;;;;12.29;100.00;21315.56;6275294;22;20027;-73
2023/09/14 02:17:35;;;;;;;25.50;4.50;;;;;;;12.30;100.00;20971.53;6275515;22;20027;-74
2023/09/14 02:20:02;;;;;;;9.33;3.33;;;;;;;12.30;100.00;20971.34;6275189;22;20015;-74
2023/09/14 02:22:28;;;;;;;9.43;4.43;;;;;;;12.25;100.00;21658.81;6275493;22;20070;-74
2023/09/14 02:24:53;;;;;;;11.07;3.90;;;;;;;12.24;100.00;23381.63;6275751;22;19999;-74
2023/09/14 02:27:19;;;;;;;9.13;3.73;;;;;;;12.16;100.00;24757.44;6275401;22;20204;-74
2023/09/14 02:29:44;;;;;;;12.47;4.67;;;;;;;12.17;100.00;25102.72;6275840;22;20057;-74
2023/09/14 02:32:09;;;;;;;7.43;3.83;;;;;;;12.15;100.00;24412.41;6274540;22;20448;-73
2023/09/14 02:34:35;;;;;;;9.73;3.53;;;;;;;12.11;100.00;25100.09;6247949;22;20006;-74
2023/09/14 02:37:02;;;;;;;8.03;3.67;;;;;;;12.14;100.00;22688.41;6248223;22;20003;-74
2023/09/14 02:39:27;;;;;;;11.05;4.50;;;;;;;12.13;100.00;23032.44;6248317;22;20004;-74
2023/09/14 02:41:53;;;;;;;10.50;3.90;;;;;;;12.11;100.00;22687.00;6248368;22;20014;-75
2023/09/14 02:44:18;;;;;;;10.93;3.87;;;;;;;12.07;100.00;21651.72;6247855;22;20007;-74
2023/09/14 02:46:43;;;;;;;8.90;4.23;;;;;;;12.11;100.00;20964.44;6275160;22;19999;-74
2023/09/14 02:49:09;;;;;;;15.20;4.20;;;;;;;12.12;100.00;20620.38;6275235;22;20030;-73
2023/09/14 02:51:35;;;;;;;11.17;4.43;;;;;;;12.02;100.00;22338.84;6275649;22;20078;-74
2023/09/14 02:54:00;;;;;;;9.20;3.50;;;;;;;11.98;100.00;23026.34;6275486;22;20330;-74
2023/09/14 02:56:25;;;;;;;9.43;4.23;;;;;;;11.99;100.00;21648.66;6247843;22;20003;-74
2023/09/14 02:58:51;;;;;;;9.70;4.03;;;;;;;12.05;100.00;19584.53;6248313;22;20090;-74
2023/09/14 03:01:17;;;;;;;10.00;4.20;;;;;;;11.93;100.00;19924.63;6274952;22;20049;-73
2023/09/14 03:03:42;;;;;;;7.83;3.93;;;;;;;11.92;100.00;20957.19;6275457;22;20073;-74
2023/09/14 03:06:08;;;;;;;18.00;5.23;;;;;;;11.99;100.00;17861.44;6247920;22;20430;-74
2023/09/14 03:08:33;;;;;;;19.87;4.83;;;;;;;11.97;100.00;17172.63;6275512;22;20012;-74
2023/09/14 03:10:59;;;;;;;10.70;3.90;;;;;;;12.01;100.00;16485.78;6275142;22;20427;-74
2023/09/14 03:13:25;;;;;;;5.68;3.85;;;;;;;11.99;100.00;16141.31;6275399;22;20004;-73
2023/09/14 03:15:55;;;;;;;10.17;4.17;;;;;;;11.95;100.00;15452.16;6275469;22;19999;-73
2023/09/14 03:18:20;;;;;;;19.10;4.15;;;;;;;11.91;100.00;13732.22;6247812;22;20321;-74
2023/09/14 03:20:46;;;;;;;11.30;4.30;;;;;;;11.90;100.00;12357.22;6275351;22;19999;-77
2023/09/14 03:23:11;;;;;;;14.27;4.60;;;;;;;11.77;100.00;13041.31;6246698;22;20011;-77
2023/09/14 03:25:37;;;;;;;11.70;4.10;;;;;;;11.83;100.00;12355.59;6248228;22;20011;-77
2023/09/14 03:28:03;;;;;;;7.67;4.07;;;;;;;11.76;100.00;15446.81;6274482;22;20066;-77
2023/09/14 03:30:28;;;;;;;6.60;4.07;;;;;;;11.73;100.00;15789.75;6247398;22;20035;-77
2023/09/14 03:32:53;;;;;;;8.17;4.67;;;;;;;11.77;100.00;15103.47;6274887;22;20554;-76
2023/09/14 03:35:19;;;;;;;12.40;4.00;;;;;;;11.76;100.00;15790.75;6274640;22;20003;-77
2023/09/14 03:37:44;;;;;;;5.03;3.80;;;;;;;11.77;100.00;15791.03;6274995;22;20034;-77
2023/09/14 03:40:10;;;;;;;9.63;4.20;;;;;;;11.79;100.00;13729.03;6247333;22;20003;-77
2023/09/14 03:42:35;;;;;;;9.37;4.00;;;;;;;11.77;100.00;14416.00;6274978;22;20003;-77
2023/09/14 03:45:02;;;;;;;14.67;3.80;;;;;;;11.70;100.00;14757.81;6274895;22;20018;-76
2023/09/14 03:47:27;;;;;;;9.75;4.53;;;;;;;11.77;100.00;13385.03;6247213;22;20031;-77
2023/09/14 03:49:53;;;;;;;7.23;4.10;;;;;;;11.75;100.00;13040.94;6248019;22;20007;-77
2023/09/14 03:52:18;;;;;;;8.40;4.10;;;;;;;11.77;100.00;14072.31;6275174;22;20064;-77
2023/09/14 03:54:43;;;;;;;7.43;3.87;;;;;;;11.77;100.00;14416.00;6248037;22;20004;-76
2023/09/14 03:57:14;;;;;;;8.07;4.20;;;;;;;11.77;100.00;14415.88;6274719;22;20077;-77
2023/09/14 03:59:41;;;;;;;10.77;4.32;;;;;;;11.77;100.00;14416.00;6248301;22;20000;-77
2023/09/14 04:02:08;;;;;;;8.52;4.00;;;;;;;11.81;100.00;14073.34;6247137;22;20116;-77
2023/09/14 04:04:34;;;;;;;8.43;4.50;;;;;;;11.76;100.00;14759.31;6275012;22;20421;-77
2023/09/14 04:06:59;;;;;;;8.33;4.53;;;;;;;11.70;100.00;16476.50;6274396;22;20010;-76
2023/09/14 04:09:29;;;;;;;6.63;3.77;;;;;;;11.66;100.00;17507.06;6273731;22;20019;-77
2023/09/14 04:11:55;;;;;;;5.95;3.92;;;;;;;11.61;100.00;19225.13;6247586;22;20425;-76
2023/09/14 04:14:20;;;;;;;6.63;4.20;;;;;;;11.59;100.00;20600.97;6274233;22;20057;-77
2023/09/14 04:16:46;;;;;;;7.90;3.97;;;;;;;11.56;100.00;20599.84;6273947;22;20091;-77
2023/09/14 04:19:12;;;;;;;11.18;4.28;;;;;;;11.61;100.00;19913.25;6246919;22;20039;-78
2023/09/14 04:21:38;;;;;;;11.53;4.70;;;;;;;11.63;100.00;18537.78;6273964;22;20007;-77
2023/09/14 04:24:03;;;;;;;10.27;4.30;;;;;;;11.58;100.00;19568.13;6274341;22;20040;-76
2023/09/14 04:26:29;;;;;;;7.70;3.93;;;;;;;11.57;100.00;19567.78;6275168;22;20003;-76
2023/09/14 04:28:54;;;;;;;10.17;4.83;;;;;;;11.57;100.00;17847.94;6273720;22;20022;-77
2023/09/14 04:31:20;;;;;;;9.53;4.50;;;;;;;11.53;100.00;18534.47;6247217;22;20490;-74
2023/09/14 04:33:45;;;;;;;9.80;4.53;;;;;;;11.50;100.00;17502.03;6247033;22;20007;-74
2023/09/14 04:36:10;;;;;;;6.77;4.30;;;;;;;11.49;100.00;16813.97;6272259;22;20030;-75
2023/09/14 04:38:36;;;;;;;12.30;4.43;;;;;;;11.54;100.00;16471.88;6272743;22;20007;-74
2023/09/14 04:41:04;;;;;;;13.73;5.53;;;;;;;11.51;100.00;15096.28;6274350;22;20007;-75
2023/09/14 04:43:32;;;;;;;8.00;4.65;;;;;;;11.47;100.00;16125.94;6247015;22;20004;-75
2023/09/14 04:45:58;;;;;;;10.57;4.65;;;;;;;11.48;100.00;17157.59;6274389;22;20000;-75
2023/09/14 04:48:23;;;;;;;13.97;5.53;;;;;;;11.46;100.00;17156.81;6274118;22;20337;-74
2023/09/14 04:50:49;;;;;;;8.37;4.47;;;;;;;11.40;100.00;18874.00;6274571;22;19999;-74
2023/09/14 04:53:14;;;;;;;8.93;4.50;;;;;;;11.41;100.00;18530.47;6247131;22;20420;-73
2023/09/14 04:55:39;;;;;;;8.30;4.63;;;;;;;11.44;100.00;17499.97;6273373;22;20030;-74
2023/09/14 04:58:06;;;;;;;8.43;5.33;;;;;;;11.42;100.00;17499.34;6274166;22;19999;-74
2023/09/14 05:00:33;;;;;;;8.70;5.05;;;;;;;11.39;100.00;16811.09;6273505;22;20037;-74
2023/09/14 05:03:01;;;;;;;13.65;6.18;;;;;;;11.41;100.00;16468.00;6272755;22;20003;-74
2023/09/14 05:05:27;;;;;;;9.02;5.22;;;;;;;11.42;100.00;16124.50;6246290;22;19999;-75
2023/09/14 05:07:52;;;;;;;9.17;5.37;;;;;;;11.42;100.00;15437.38;6273756;22;20004;-73
2023/09/14 05:10:18;;;;;;;8.30;4.93;;;;;;;11.39;100.00;15436.53;6273578;22;20449;-74
2023/09/14 05:12:46;;;;;;;12.33;5.63;;;;;;;11.44;100.00;14750.66;6274242;22;20095;-74
2023/09/14 05:15:11;;;;;;;12.57;5.72;;;;;;;11.41;100.00;15093.53;6273861;22;20018;-73
2023/09/14 05:17:37;;;;;;;13.23;5.60;;;;;;;11.41;100.00;14749.97;6274258;22;20337;-74
2023/09/14 05:20:06;;;;;;;11.10;5.33;;;;;;;11.42;100.00;15093.81;6274095;22;20564;-74
2023/09/14 05:22:31;;;;;;;16.08;5.47;;;;;;;11.50;100.00;14065.19;6274014;22;20061;-74
2023/09/14 05:24:57;;;;;;;12.33;5.67;;;;;;;11.48;100.00;14408.19;6274109;22;20417;-74
2023/09/14 05:27:22;;;;;;;7.90;5.13;;;;;;;11.52;100.00;14409.25;6247372;22;20007;-74
2023/09/14 05:29:49;;;;;;;10.43;5.90;;;;;;;11.55;100.00;14410.03;6273379;22;20000;-74
2023/09/14 05:32:14;;;;;;;10.95;5.43;;;;;;;11.55;100.00;14753.75;6273829;22;20003;-74
2023/09/14 05:34:40;;;;;;;12.60;4.63;;;;;;;11.60;100.00;15098.63;6247014;22;20379;-74
2023/09/14 05:37:05;;;;;;;15.77;5.37;;;;;;;11.65;100.00;14412.69;6273803;22;20011;-74
2023/09/14 05:39:31;;;;;;;20.07;5.40;;;;;;;11.70;100.00;14757.69;6247066;22;20037;-74
2023/09/14 05:41:56;;;;;;;16.77;5.93;;;;;;;11.76;100.00;15446.81;6273630;22;20325;-78
2023/09/14 05:44:22;;;;;;;14.90;6.00;;;;;;;11.78;100.00;15103.59;6247463;22;20007;-77
2023/09/14 05:46:47;;;;;;;7.47;5.50;;;;;;;11.83;100.00;15105.13;6274665;22;20438;-77
2023/09/14 05:49:13;;;;;;;12.00;6.70;;;;;;;11.91;100.00;14763.38;6247087;22;20450;-76
2023/09/14 05:51:38;;;;;;;8.67;5.60;;;;;;;11.91;100.00;16138.84;6247574;22;20003;-77
2023/09/14 05:54:04;;;;;;;14.33;5.10;;;;;;;11.95;100.00;17172.00;6247121;22;20029;-76
2023/09/14 05:56:29;;;;;;;10.67;5.37;;;;;;;12.05;100.00;17519.22;6274610;22;20337;-77
2023/09/14 05:58:55;;;;;;;14.67;5.50;;;;;;;12.20;100.00;15115.19;6246593;22;20003;-76
2023/09/14 06:01:20;;;;;;;12.80;5.63;;;;;;;12.28;100.00;15805.56;6274340;22;20004;-77
2023/09/14 06:03:45;;;;;;;11.37;5.63;;;;;;;12.37;100.00;16840.75;6247078;22;20023;-77
2023/09/14 06:06:11;;;;;;;10.40;5.40;;;;;;;12.45;100.00;16499.06;6273084;22;20337;-77
2023/09/14 06:08:37;;;;;;;17.17;6.00;;;;;;;12.54;100.00;16157.31;6273687;22;20388;-77
2023/09/14 06:11:03;;;;;;;11.82;5.47;;;;;;;12.61;100.00;15815.06;6273931;22;20043;-76
2023/09/14 06:13:28;;;;;;;13.53;5.23;;;;;;;12.70;100.00;16850.81;6247237;22;20014;-78
2023/09/14 06:15:54;;;;;;;11.93;5.23;;;;;;;12.81;100.00;18577.03;6246343;22;20014;-76
2023/09/14 06:18:20;;;;;;;10.57;5.80;;;;;;;12.96;100.00;18237.31;6247082;22;20007;-77
2023/09/14 06:20:45;;;;;;;15.40;6.37;;;;;;;13.09;100.00;16862.69;6273995;22;20379;-77
2023/09/14 06:23:11;;;;;;;16.57;7.50;;;;;;;13.25;100.00;15144.22;6246360;22;20004;-77
2023/09/14 06:25:36;;;;;;;16.67;6.07;;;;;;;13.36;100.00;14458.03;6271893;22;20003;-77
2023/09/14 06:28:02;;;;;;;21.00;7.33;;;;;;;13.58;100.00;11362.66;6271391;22;20422;-76
2023/09/14 06:30:29;;;;;;;19.13;7.47;;;;;;;13.69;100.00;11020.66;6246950;22;20008;-77
2023/09/14 06:32:55;;;;;;;20.63;7.32;;;;;;;13.89;100.00;10680.28;6273919;22;20026;-76
2023/09/14 06:35:20;;;;;;;15.63;6.50;;;;;;;14.03;100.00;10683.13;6246895;22;20008;-77
2023/09/14 06:37:46;;;;;;;18.73;6.97;;;;;;;14.16;100.00;11030.50;6272474;22;20437;-76
2023/09/14 06:40:11;;;;;;;16.73;7.17;;;;;;;14.32;100.00;11033.78;6274827;22;20434;-77
2023/09/14 06:42:37;;;;;;;16.10;6.63;;;;;;;14.44;100.00;13451.41;6276127;22;19999;-77
2023/09/14 06:45:03;;;;;;;16.17;6.50;;;;;;;14.54;100.00;16216.09;6248521;22;20326;-75
2023/09/14 06:47:29;;;;;;;24.92;7.03;;;;;;;14.61;100.00;18637.03;6275261;22;20137;-77
2023/09/14 06:49:54;;;;;;;15.93;6.63;;;;;;;14.67;100.00;21059.69;6276042;22;20421;-76
2023/09/14 06:52:20;;;;;;;20.03;6.63;;;;;;;14.84;100.00;23142.84;6275844;22;20102;-74
2023/09/14 06:54:46;;;;;;;20.83;5.70;;;;;;;14.89;100.00;25915.66;6248706;22;20440;-74
2023/09/14 06:57:13;;;;;;;14.00;6.82;;;;;;;14.90;100.00;27995.53;6275498;22;20003;-75
2023/09/14 06:59:39;;;;;;;16.67;6.30;;;;;;;14.94;100.00;30078.13;6275858;22;20038;-74
2023/09/14 07:02:05;;;;;;;20.87;7.20;;;;;;;15.02;100.00;31470.19;6275500;22;20107;-74
2023/09/14 07:04:31;;;;;;;20.08;6.82;;;;;;;15.07;100.00;34944.81;6275639;22;20004;-75
2023/09/14 07:06:56;;;;;;;19.47;6.73;;;;;;;15.09;100.00;39116.78;6275457;22;20000;-74
2023/09/14 07:09:23;;;;;;;23.97;7.03;;;;;;;15.16;100.00;40164.97;6274776;22;20582;-74
2023/09/14 07:11:48;;;;;;;17.35;6.40;;;;;;;15.13;100.00;41207.00;6248624;22;20004;-74
2023/09/14 07:14:14;;;;;;;16.57;6.63;;;;;;;15.27;100.00;41564.91;6273212;22;20019;-74
2023/09/14 07:16:39;;;;;;;17.60;6.43;;;;;;;15.38;100.00;44010.03;6274159;22;20418;-74
2023/09/14 07:19:05;;;;;;;23.53;6.93;;;;;;;15.48;100.00;47154.41;6275151;22;20004;-74
2023/09/14 07:21:34;;;;;;;23.50;7.63;;;;;;;15.62;100.00;49608.09;6248381;22;20000;-74
2023/09/14 07:24:00;;;;;;;20.67;7.65;;;;;;;15.62;100.00;53099.44;6274481;22;20004;-74
2023/09/14 07:26:26;;;;;;;19.57;7.03;;;;;;;15.67;100.00;54500.97;6247497;22;20082;-74
2023/09/14 07:28:51;;;;;;;21.70;6.67;;;;;;;15.73;100.00;55905.13;6247654;22;20014;-74
2023/09/14 07:31:18;;;;;;;;;;;;;;;15.79;100.00;58708.34;6248244;22;20015;-74
2023/09/14 07:33:46;;;;;;;18.15;7.25;;;;;;;15.87;100.00;62918.06;6274671;22;20241;-74
2023/09/14 07:36:12;;;;;;;17.25;7.57;;;;;;;15.99;100.00;64331.94;6274388;22;20004;-74
2023/09/14 07:38:37;;;;;;;17.33;7.13;;;;;;;16.01;100.00;66788.88;6247239;22;20004;-74
2023/09/14 07:41:03;;;;;;;20.47;7.60;;;;;;;16.09;100.00;66447.13;6275033;22;20450;-74
2023/09/14 07:43:28;;;;;;;19.50;7.90;;;;;;;16.16;100.00;72421.94;6275904;22;20008;-75
2023/09/14 07:45:57;;;;;;;20.77;7.57;;;;;;;16.25;100.00;71379.56;6248115;22;20455;-74
2023/09/14 07:48:22;;;;;;;22.88;8.65;;;;;;;16.32;100.00;73495.69;6275367;22;20031;-74
2023/09/14 07:50:48;;;;;;;26.23;8.00;;;;;;;16.45;100.00;81605.63;6274819;22;20491;-74
2023/09/14 07:53:13;;;;;;;20.03;9.37;;;;;;;16.54;100.00;84790.75;6273388;22;20003;-74
2023/09/14 07:55:39;;;;;;;30.90;11.00;;;;;;;16.58;100.00;95741.72;6274419;22;20000;-74
2023/09/14 07:58:06;;;;;;;22.33;9.37;;;;;;;16.61;100.00;97161.16;6274842;22;20311;-74
2023/09/14 08:00:34;;;;;;;24.88;9.00;;;;;;;16.62;100.00;97516.53;6274584;22;20003;-75
2023/09/14 08:02:59;;;;;;;22.88;9.30;;;;;;;16.73;100.00;92584.03;6247428;22;20007;-76
2023/09/14 08:05:25;;;;;;;25.37;9.47;;;;;;;16.74;100.00;93292.44;6248124;22;20004;-77
2023/09/14 08:07:50;;;;;;;21.57;8.67;;;;;;;16.77;100.00;91530.94;6248005;22;20004;-77
2023/09/14 08:10:16;;;;;;;18.43;9.13;;;;;;;16.76;100.00;94710.44;6274711;22;20122;-77
2023/09/14 08:12:41;;;;;;;19.20;8.80;;;;;;;16.82;100.00;97903.84;6248038;22;20459;-76
2023/09/14 08:15:08;;;;;;;22.23;8.23;;;;;;;16.93;100.00;96151.59;6274989;22;20073;-76
2023/09/14 08:17:33;;;;;;;26.63;9.43;;;;;;;17.03;100.00;97938.25;6275309;22;20014;-76
2023/09/14 08:19:59;;;;;;;25.37;8.93;;;;;;;17.14;100.00;99726.28;6275086;22;20386;-77
2023/09/14 08:22:25;;;;;;;18.90;9.48;;;;;;;17.04;100.00;103962.09;6247689;22;20027;-76
2023/09/14 08:24:51;;;;;;;33.97;9.90;;;;;;;17.14;100.00;104688.75;6275103;22;20015;-78
2023/09/14 08:35:22;;;;;;;20.90;8.43;;;;;;;17.78;100.00;119740.53;6251449;22;20043;-76
2023/09/14 08:37:48;;;;;;;21.10;7.55;;;;;;;17.95;100.00;131197.16;6274355;22;20030;-76
2023/09/14 08:40:14;;;;;;;17.03;8.33;;;;;;;18.05;100.00;145185.72;6247296;22;20011;-76
2023/09/14 08:42:42;;;;;;;20.73;8.05;;;;;;;18.17;100.00;155991.22;6247487;22;19992;-76
2023/09/14 08:45:12;;;;;;;15.07;7.70;;;;;;;18.29;100.00;156021.13;6274518;22;20004;-77
2023/09/14 08:47:42;;;;;;;19.55;8.63;;;;;;;18.21;100.00;156000.31;6274688;22;20053;-76
2023/09/14 08:50:13;;;;;;;22.60;8.30;;;;;;;18.33;100.00;156031.63;6274729;22;20000;-77
2023/09/14 08:52:40;;;;;;;19.70;8.45;;;;;;;18.36;100.00;156039.44;6247603;22;20007;-77
2023/09/14 08:55:06;;;;;;;17.48;8.18;;;;;;;18.51;100.00;156079.81;6274229;22;20002;-77
2023/09/14 08:57:32;;;;;;;15.02;7.15;;;;;;;18.67;100.00;156120.22;6247613;22;20007;-77
2023/09/14 09:00:00;;;;;;;19.80;8.23;;;;;;;18.87;100.00;156172.31;6247171;22;20007;-77
2023/09/14 09:02:27;;;;;;;15.55;7.45;;;;;;;18.98;100.00;156202.28;6274129;22;20053;-76
2023/09/14 09:04:52;;;;;;;;;;;;;;;18.97;100.00;156198.38;6275246;22;20007;-77
2023/09/14 09:07:19;;;;;;;16.48;7.45;;;;;;;19.05;100.00;156220.53;6274590;22;19919;-76
2023/09/14 09:09:49;;;;;;;13.32;6.70;;;;;;;19.20;100.00;156258.34;6274123;22;20413;-77
2023/09/14 09:12:14;;;;;;;18.35;6.32;;;;;;;19.17;100.00;156251.84;6274140;22;19995;-73
2023/09/14 09:14:40;;;;;;;13.23;6.10;;;;;;;19.26;100.00;156275.31;6274485;22;20052;-73
2023/09/14 09:17:06;;;;;;;14.45;5.57;;;;;;;19.30;100.00;156284.44;6274381;22;20010;-73
2023/09/14 09:19:46;;;;;;;11.37;5.43;;;;;;;19.28;100.00;156280.56;6274062;22;20321;-73
2023/09/14 09:22:11;;;;;;;14.02;6.35;;;;;;;19.28;100.00;156280.56;6246967;22;20038;-73
2023/09/14 09:24:38;;;;;;;14.83;6.90;;;;;;;19.44;100.00;156322.28;6274521;22;20035;-73
2023/09/14 09:27:23;;;;;;;13.05;5.70;;;;;;;19.67;100.00;156380.91;6274238;22;20004;-73
2023/09/14 09:29:59;;;;;;;11.85;5.40;;;;;;;19.80;100.00;156414.84;6246769;22;20004;-73
2023/09/14 09:32:24;;;;;;;13.25;5.50;;;;;;;19.87;100.00;156433.06;6274295;22;19996;-74
2023/09/14 09:34:50;;;;;;;13.77;6.17;;;;;;;19.97;100.00;156459.16;6274084;22;20022;-73
2023/09/14 09:37:15;;;;;;;13.57;5.93;;;;;;;20.04;100.00;156478.72;6274200;22;20019;-73
2023/09/14 09:39:41;;;;;;;13.30;6.93;;;;;;;20.27;100.00;156538.75;6274300;22;20003;-73
2023/09/14 09:42:09;;;;;;;15.73;6.95;;;;;;;20.39;100.00;156570.06;6246725;22;19995;-73
2023/09/14 09:44:35;;;;;;;19.02;8.77;;;;;;;20.32;100.00;156551.81;6273930;22;20010;-73
2023/09/14 09:47:01;;;;;;;16.80;7.33;;;;;;;20.23;100.00;156527.03;6247250;22;20003;-73
2023/09/14 09:49:29;;;;;;;15.55;8.18;;;;;;;20.32;100.00;156551.81;6274278;22;20004;-73
2023/09/14 09:51:54;;;;;;;16.42;7.05;;;;;;;20.54;100.00;156609.19;6273854;22;20079;-73
2023/09/14 09:54:23;;;;;;;14.93;7.13;;;;;;;20.70;100.00;156649.69;6274298;22;20027;-72
2023/09/14 09:56:49;;;;;;;14.68;6.57;;;;;;;20.93;100.00;156711.06;6274545;22;20065;-74
2023/09/14 09:59:15;;;;;;;15.23;7.50;;;;;;;21.04;100.00;156739.78;6273629;22;20489;-73
2023/09/14 10:01:44;;;;;;;13.43;6.97;;;;;;;21.41;100.00;156836.38;6274604;22;20006;-73
2023/09/14 10:04:11;;;;;;;14.95;6.88;;;;;;;21.43;100.00;156840.25;6247042;22;20011;-73
2023/09/14 10:06:40;;;;;;;14.32;5.75;;;;;;;21.69;100.00;156909.53;6247349;22;20007;-73
2023/09/14 10:09:10;;;;;;;18.02;6.68;;;;;;;21.85;100.00;156949.97;6273851;22;20007;-73
2023/09/14 10:11:37;;;;;;;13.30;5.95;;;;;;;21.34;100.00;156818.06;6247334;22;20035;-71
2023/09/14 10:14:03;;;;;;;15.88;6.85;;;;;;;21.49;100.00;156855.91;6275302;22;20725;-73
2023/09/14 10:16:34;;;;;;;13.63;6.28;;;;;;;21.77;100.00;156929.13;6276437;22;20079;-74
2023/09/14 10:19:00;;;;;;;12.80;5.95;;;;;;;22.08;100.00;157010.09;6273767;22;20437;-74
2023/09/14 10:21:27;;;;;;;;;;;;;;;21.84;100.00;156947.38;6247725;22;20402;-74
2023/09/14 10:23:53;;;;;;;14.15;6.15;;;;;;;21.76;100.00;156927.78;6274694;22;19989;-77
2023/09/14 10:26:19;;;;;;;13.65;5.80;;;;;;;21.56;100.00;156874.22;6276145;22;19999;-77
2023/09/14 10:28:46;;;;;;;13.07;5.63;;;;;;;21.59;100.00;156882.03;6275392;22;20014;-76
2023/09/14 10:31:13;;;;;;;12.48;5.57;;;;;;;21.12;100.00;156759.34;6275848;22;20007;-77
2023/09/14 10:33:44;;;;;;;13.63;5.32;;;;;;;20.75;100.00;156662.72;6275310;22;20027;-77
2023/09/14 10:36:14;;;;;;;15.60;5.70;;;;;;;20.60;100.00;156623.56;6248627;22;20054;-77
2023/09/14 10:38:43;;;;;;;13.20;5.25;;;;;;;20.63;100.00;156631.38;6275797;22;20040;-77
2023/09/14 10:41:09;;;;;;;10.73;5.35;;;;;;;21.55;100.00;156872.88;6275157;22;20056;-78
2023/09/14 10:43:34;;;;;;;9.80;5.20;;;;;;;22.09;100.00;157012.69;6248720;22;20000;-77
2023/09/14 10:46:01;;;;;;;13.80;4.53;;;;;;;22.56;100.00;157135.56;6246213;22;20004;-76
2023/09/14 10:48:29;;;;;;;8.18;4.82;;;;;;;22.01;100.00;156991.78;6275485;22;20061;-79
2023/09/14 10:51:00;;;;;;;18.70;5.88;;;;;;;21.31;100.00;156810.25;6248431;22;20058;-76
2023/09/14 10:53:27;;;;;;;10.23;4.82;;;;;;;21.33;100.00;156815.47;6275642;22;20366;-78
2023/09/14 10:55:53;;;;;;;10.35;5.25;;;;;;;21.69;100.00;156909.53;6275767;22;20338;-76
2023/09/14 10:58:18;;;;;;;9.23;5.27;;;;;;;22.06;100.00;157004.84;6275584;22;20007;-78
2023/09/14 11:00:44;;;;;;;11.87;5.17;;;;;;;22.53;100.00;157127.69;6274917;22;20373;-78
2023/09/14 11:03:10;;;;;;;8.90;4.35;;;;;;;22.93;100.00;157233.53;6248140;22;20000;-78
2023/09/14 11:05:46;;;;;;;9.07;4.43;;;;;;;23.20;100.00;157304.16;6248921;22;20095;-78
2023/09/14 11:08:12;;;;;;;8.88;4.60;;;;;;;23.32;100.00;157334.25;6248686;22;20003;-78
2023/09/14 11:10:38;;;;;;;12.00;4.80;;;;;;;23.29;100.00;157326.38;6275284;22;20453;-77
2023/09/14 11:13:18;;;;;;;8.77;4.13;;;;;;;23.22;100.00;157309.38;6275358;22;20004;-77
2023/09/14 11:15:46;;;;;;;8.10;4.18;;;;;;;23.45;100.00;157368.22;6274223;22;20010;-77
2023/09/14 11:18:16;;;;;;;11.90;4.35;;;;;;;23.37;100.00;157348.59;6248178;22;20073;-78
2023/09/14 11:20:44;;;;;;;10.77;4.57;;;;;;;23.69;100.00;157431.00;6275236;22;20429;-78
2023/09/14 11:23:10;;;;;;;7.15;4.10;;;;;;;23.66;100.00;157423.13;6248178;22;20436;-78
2023/09/14 11:25:38;;;;;;;7.78;4.95;;;;;;;23.52;100.00;157387.84;6275644;22;20022;-77